sensor_id;sensor_type;location;lat;lon;timestamp;P1;durP1;ratioP1;P2;durP2;ratioP2
69917;SDS011;57203;42.672;23.334;2023-05-29T00:02:19;7.4;;;5.6;;
69917;SDS011;57203;42.672;23.334;2023-05-29T00:03:19;9.5;;;6.1;;
69917;SDS011;57203;42.672;23.334;2023-05-29T00:04:19;9.5;;;5.3;;
69917;SDS011;57203;42.672;23.334;2023-05-29T00:05:19;6.7;;;5.1;;
69917;SDS011;57203;42.672;23.334;2023-05-29T00:06:19;6.9;;;5.5;;
69917;SDS011;57203;42.672;23.334;2023-05-29T00:07:20;8.3;;;4.9;;
69917;SDS011;57203;42.672;23.334;2023-05-29T00:08:20;7.5;;;5.1;;
69917;SDS011;57203;42.672;23.334;2023-05-29T00:09:20;7.5;;;5.0;;
69917;SDS011;57203;42.672;23.334;2023-05-29T00:10:20;6.5;;;5.4;;
69917;SDS011;57203;42.672;23.334;2023-05-29T00:11:20;7.2;;;5.6;;
69917;SDS011;57203;42.672;23.334;2023-05-29T00:12:21;8.1;;;5.0;;
69917;SDS011;57203;42.672;23.334;2023-05-29T00:13:21;7.9;;;5.3;;
69917;SDS011;57203;42.672;23.334;2023-05-29T00:14:21;7.9;;;5.6;;
69917;SDS011;57203;42.672;23.334;2023-05-29T00:15:21;9.3;;;4.9;;
69917;SDS011;57203;42.672;23.334;2023-05-29T00:16:22;7.6;;;5.0;;
69917;SDS011;57203;42.672;23.334;2023-05-29T00:17:22;7.6;;;5.3;;
69917;SDS011;57203;42.672;23.334;2023-05-29T00:20:22;8.6;;;5.1;;
69917;SDS011;57203;42.672;23.334;2023-05-29T00:21:23;6.9;;;5.2;;
69917;SDS011;57203;42.672;23.334;2023-05-29T00:22:23;7.5;;;5.3;;
69917;SDS011;57203;42.672;23.334;2023-05-29T00:24:23;6.6;;;5.9;;
69917;SDS011;57203;42.672;23.334;2023-05-29T00:25:23;8.9;;;5.1;;
69917;SDS011;57203;42.672;23.334;2023-05-29T00:26:24;6.3;;;5.7;;
69917;SDS011;57203;42.672;23.334;2023-05-29T00:27:24;8.9;;;5.8;;
69917;SDS011;57203;42.672;23.334;2023-05-29T00:29:24;7.1;;;5.4;;
69917;SDS011;57203;42.672;23.334;2023-05-29T00:30:24;8.5;;;5.3;;
69917;SDS011;57203;42.672;23.334;2023-05-29T00:31:25;7.3;;;5.7;;
69917;SDS011;57203;42.672;23.334;2023-05-29T00:32:25;7.3;;;5.3;;
69917;SDS011;57203;42.672;23.334;2023-05-29T00:33:25;9.0;;;5.7;;
69917;SDS011;57203;42.672;23.334;2023-05-29T00:34:25;9.0;;;5.5;;
69917;SDS011;57203;42.672;23.334;2023-05-29T00:35:25;7.9;;;5.8;;
69917;SDS011;57203;42.672;23.334;2023-05-29T00:36:26;9.4;;;5.5;;
69917;SDS011;57203;42.672;23.334;2023-05-29T00:37:26;6.5;;;5.3;;
69917;SDS011;57203;42.672;23.334;2023-05-29T00:38:26;6.5;;;5.6;;
69917;SDS011;57203;42.672;23.334;2023-05-29T00:39:26;7.4;;;5.9;;
69917;SDS011;57203;42.672;23.334;2023-05-29T00:40:26;7.4;;;6.1;;
69917;SDS011;57203;42.672;23.334;2023-05-29T00:41:27;9.3;;;5.8;;
69917;SDS011;57203;42.672;23.334;2023-05-29T00:42:27;9.1;;;6.0;;
69917;SDS011;57203;42.672;23.334;2023-05-29T00:43:27;8.6;;;6.3;;
69917;SDS011;57203;42.672;23.334;2023-05-29T00:44:27;9.3;;;6.4;;
69917;SDS011;57203;42.672;23.334;2023-05-29T00:45:27;8.5;;;6.6;;
69917;SDS011;57203;42.672;23.334;2023-05-29T00:46:28;7.7;;;6.3;;
69917;SDS011;57203;42.672;23.334;2023-05-29T00:47:28;7.7;;;6.0;;
69917;SDS011;57203;42.672;23.334;2023-05-29T00:48:28;6.7;;;5.4;;
69917;SDS011;57203;42.672;23.334;2023-05-29T00:49:28;6.7;;;6.4;;
69917;SDS011;57203;42.672;23.334;2023-05-29T00:50:28;11.2;;;5.7;;
69917;SDS011;57203;42.672;23.334;2023-05-29T00:52:29;9.5;;;6.3;;
69917;SDS011;57203;42.672;23.334;2023-05-29T00:55:30;8.7;;;6.0;;
69917;SDS011;57203;42.672;23.334;2023-05-29T00:57:30;8.6;;;6.7;;
69917;SDS011;57203;42.672;23.334;2023-05-29T00:58:30;11.2;;;7.3;;
69917;SDS011;57203;42.672;23.334;2023-05-29T00:59:32;9.1;;;7.0;;
69917;SDS011;57203;42.672;23.334;2023-05-29T01:00:31;9.8;;;6.2;;
69917;SDS011;57203;42.672;23.334;2023-05-29T01:01:31;8.8;;;6.6;;
69917;SDS011;57203;42.672;23.334;2023-05-29T01:04:31;9.3;;;6.9;;
69917;SDS011;57203;42.672;23.334;2023-05-29T01:05:33;11.2;;;6.6;;
69917;SDS011;57203;42.672;23.334;2023-05-29T01:06:32;11.7;;;6.8;;
69917;SDS011;57203;42.672;23.334;2023-05-29T01:07:32;11.7;;;6.4;;
69917;SDS011;57203;42.672;23.334;2023-05-29T01:08:32;9.5;;;6.7;;
69917;SDS011;57203;42.672;23.334;2023-05-29T01:12:36;9.8;;;6.3;;
69917;SDS011;57203;42.672;23.334;2023-05-29T01:13:33;8.9;;;6.5;;
69917;SDS011;57203;42.672;23.334;2023-05-29T01:14:36;8.9;;;6.1;;
69917;SDS011;57203;42.672;23.334;2023-05-29T01:16:35;10.7;;;6.2;;
69917;SDS011;57203;42.672;23.334;2023-05-29T01:17:37;10.7;;;6.0;;
69917;SDS011;57203;42.672;23.334;2023-05-29T01:18:38;9.8;;;6.1;;
69917;SDS011;57203;42.672;23.334;2023-05-29T01:19:42;10.5;;;5.7;;
69917;SDS011;57203;42.672;23.334;2023-05-29T01:23:38;10.1;;;6.2;;
69917;SDS011;57203;42.672;23.334;2023-05-29T01:24:37;10.1;;;6.1;;
69917;SDS011;57203;42.672;23.334;2023-05-29T01:25:42;8.3;;;6.3;;
69917;SDS011;57203;42.672;23.334;2023-05-29T01:26:40;9.2;;;6.2;;
69917;SDS011;57203;42.672;23.334;2023-05-29T01:27:36;7.8;;;6.1;;
69917;SDS011;57203;42.672;23.334;2023-05-29T01:28:37;9.2;;;6.5;;
69917;SDS011;57203;42.672;23.334;2023-05-29T01:29:37;9.2;;;5.9;;
69917;SDS011;57203;42.672;23.334;2023-05-29T01:30:37;8.0;;;6.1;;
69917;SDS011;57203;42.672;23.334;2023-05-29T01:31:37;9.0;;;6.7;;
69917;SDS011;57203;42.672;23.334;2023-05-29T01:32:37;10.0;;;6.1;;
69917;SDS011;57203;42.672;23.334;2023-05-29T01:33:38;8.6;;;5.7;;
69917;SDS011;57203;42.672;23.334;2023-05-29T01:34:38;8.6;;;6.5;;
69917;SDS011;57203;42.672;23.334;2023-05-29T01:35:38;11.6;;;6.6;;
69917;SDS011;57203;42.672;23.334;2023-05-29T01:36:38;9.0;;;6.4;;
69917;SDS011;57203;42.672;23.334;2023-05-29T01:37:38;9.0;;;5.6;;
69917;SDS011;57203;42.672;23.334;2023-05-29T01:38:39;8.3;;;6.3;;
69917;SDS011;57203;42.672;23.334;2023-05-29T01:39:39;9.3;;;6.0;;
69917;SDS011;57203;42.672;23.334;2023-05-29T01:40:39;9.1;;;7.5;;
69917;SDS011;57203;42.672;23.334;2023-05-29T01:41:39;11.6;;;6.5;;
69917;SDS011;57203;42.672;23.334;2023-05-29T01:42:39;8.6;;;6.6;;
69917;SDS011;57203;42.672;23.334;2023-05-29T01:43:40;7.8;;;5.9;;
69917;SDS011;57203;42.672;23.334;2023-05-29T01:44:40;7.8;;;6.6;;
69917;SDS011;57203;42.672;23.334;2023-05-29T01:45:40;10.2;;;6.2;;
69917;SDS011;57203;42.672;23.334;2023-05-29T01:46:41;8.7;;;6.1;;
69917;SDS011;57203;42.672;23.334;2023-05-29T01:47:41;9.7;;;6.7;;
69917;SDS011;57203;42.672;23.334;2023-05-29T01:48:41;11.4;;;7.0;;
69917;SDS011;57203;42.672;23.334;2023-05-29T01:49:41;8.8;;;6.8;;
69917;SDS011;57203;42.672;23.334;2023-05-29T01:50:41;8.8;;;6.2;;
69917;SDS011;57203;42.672;23.334;2023-05-29T01:51:42;8.1;;;6.8;;
69917;SDS011;57203;42.672;23.334;2023-05-29T01:52:42;10.4;;;7.3;;
69917;SDS011;57203;42.672;23.334;2023-05-29T01:53:42;9.9;;;7.0;;
69917;SDS011;57203;42.672;23.334;2023-05-29T01:54:42;10.2;;;7.2;;
69917;SDS011;57203;42.672;23.334;2023-05-29T01:56:43;10.1;;;6.9;;
69917;SDS011;57203;42.672;23.334;2023-05-29T01:57:43;8.7;;;6.6;;
69917;SDS011;57203;42.672;23.334;2023-05-29T01:59:43;10.2;;;7.5;;
69917;SDS011;57203;42.672;23.334;2023-05-29T02:00:44;13.0;;;7.7;;
69917;SDS011;57203;42.672;23.334;2023-05-29T02:01:44;11.8;;;7.6;;
69917;SDS011;57203;42.672;23.334;2023-05-29T02:02:44;10.2;;;8.1;;
69917;SDS011;57203;42.672;23.334;2023-05-29T02:03:44;11.4;;;7.8;;
69917;SDS011;57203;42.672;23.334;2023-05-29T02:04:44;11.9;;;7.5;;
69917;SDS011;57203;42.672;23.334;2023-05-29T02:05:44;10.4;;;7.0;;
69917;SDS011;57203;42.672;23.334;2023-05-29T02:06:45;9.1;;;7.5;;
69917;SDS011;57203;42.672;23.334;2023-05-29T02:07:45;10.6;;;7.1;;
69917;SDS011;57203;42.672;23.334;2023-05-29T02:08:45;8.6;;;8.1;;
69917;SDS011;57203;42.672;23.334;2023-05-29T02:09:45;9.5;;;7.5;;
69917;SDS011;57203;42.672;23.334;2023-05-29T02:11:46;11.0;;;7.3;;
69917;SDS011;57203;42.672;23.334;2023-05-29T02:12:46;11.1;;;7.5;;
69917;SDS011;57203;42.672;23.334;2023-05-29T02:14:46;11.2;;;8.0;;
69917;SDS011;57203;42.672;23.334;2023-05-29T02:15:46;10.2;;;8.1;;
69917;SDS011;57203;42.672;23.334;2023-05-29T02:16:47;12.5;;;7.6;;
69917;SDS011;57203;42.672;23.334;2023-05-29T02:17:47;10.8;;;7.8;;
69917;SDS011;57203;42.672;23.334;2023-05-29T02:18:47;9.7;;;7.4;;
69917;SDS011;57203;42.672;23.334;2023-05-29T02:19:47;9.3;;;7.2;;
69917;SDS011;57203;42.672;23.334;2023-05-29T02:20:48;11.7;;;7.5;;
69917;SDS011;57203;42.672;23.334;2023-05-29T02:23:48;9.5;;;7.3;;
69917;SDS011;57203;42.672;23.334;2023-05-29T02:24:48;10.9;;;7.2;;
69917;SDS011;57203;42.672;23.334;2023-05-29T02:26:49;10.0;;;6.3;;
69917;SDS011;57203;42.672;23.334;2023-05-29T02:27:49;7.8;;;6.7;;
69917;SDS011;57203;42.672;23.334;2023-05-29T02:28:49;11.0;;;6.8;;
69917;SDS011;57203;42.672;23.334;2023-05-29T02:29:49;11.0;;;6.9;;
69917;SDS011;57203;42.672;23.334;2023-05-29T02:30:50;10.7;;;7.3;;
69917;SDS011;57203;42.672;23.334;2023-05-29T02:31:50;9.2;;;6.9;;
69917;SDS011;57203;42.672;23.334;2023-05-29T02:32:50;11.2;;;7.1;;
69917;SDS011;57203;42.672;23.334;2023-05-29T02:33:50;9.6;;;7.7;;
69917;SDS011;57203;42.672;23.334;2023-05-29T02:34:51;10.7;;;7.4;;
69917;SDS011;57203;42.672;23.334;2023-05-29T02:35:51;15.1;;;7.5;;
69917;SDS011;57203;42.672;23.334;2023-05-29T02:36:51;9.7;;;7.4;;
69917;SDS011;57203;42.672;23.334;2023-05-29T02:37:51;11.4;;;7.5;;
69917;SDS011;57203;42.672;23.334;2023-05-29T02:38:51;10.9;;;6.6;;
69917;SDS011;57203;42.672;23.334;2023-05-29T02:39:52;9.0;;;7.6;;
69917;SDS011;57203;42.672;23.334;2023-05-29T02:40:52;9.6;;;7.0;;
69917;SDS011;57203;42.672;23.334;2023-05-29T02:41:52;11.1;;;7.6;;
69917;SDS011;57203;42.672;23.334;2023-05-29T02:42:52;9.9;;;7.3;;
69917;SDS011;57203;42.672;23.334;2023-05-29T02:43:52;10.4;;;7.2;;
69917;SDS011;57203;42.672;23.334;2023-05-29T02:44:53;10.4;;;7.7;;
69917;SDS011;57203;42.672;23.334;2023-05-29T02:46:53;13.2;;;8.0;;
69917;SDS011;57203;42.672;23.334;2023-05-29T02:47:53;10.3;;;7.9;;
69917;SDS011;57203;42.672;23.334;2023-05-29T02:48:53;15.7;;;8.7;;
69917;SDS011;57203;42.672;23.334;2023-05-29T02:49:53;15.7;;;7.7;;
69917;SDS011;57203;42.672;23.334;2023-05-29T02:50:54;13.0;;;7.8;;
69917;SDS011;57203;42.672;23.334;2023-05-29T02:51:54;11.3;;;7.4;;
69917;SDS011;57203;42.672;23.334;2023-05-29T02:52:54;11.4;;;7.6;;
69917;SDS011;57203;42.672;23.334;2023-05-29T02:53:54;9.5;;;6.5;;
69917;SDS011;57203;42.672;23.334;2023-05-29T02:54:55;9.5;;;6.4;;
69917;SDS011;57203;42.672;23.334;2023-05-29T02:55:55;8.8;;;7.2;;
69917;SDS011;57203;42.672;23.334;2023-05-29T02:56:55;11.3;;;7.7;;
69917;SDS011;57203;42.672;23.334;2023-05-29T02:57:55;10.9;;;6.7;;
69917;SDS011;57203;42.672;23.334;2023-05-29T02:58:55;11.1;;;6.4;;
69917;SDS011;57203;42.672;23.334;2023-05-29T02:59:56;10.3;;;7.2;;
69917;SDS011;57203;42.672;23.334;2023-05-29T03:00:56;9.2;;;6.9;;
69917;SDS011;57203;42.672;23.334;2023-05-29T03:01:56;9.1;;;6.7;;
69917;SDS011;57203;42.672;23.334;2023-05-29T03:02:56;9.1;;;6.6;;
69917;SDS011;57203;42.672;23.334;2023-05-29T03:03:57;9.9;;;6.3;;
69917;SDS011;57203;42.672;23.334;2023-05-29T03:04:57;9.4;;;6.7;;
69917;SDS011;57203;42.672;23.334;2023-05-29T03:05:57;8.5;;;7.0;;
69917;SDS011;57203;42.672;23.334;2023-05-29T03:06:57;8.6;;;6.5;;
69917;SDS011;57203;42.672;23.334;2023-05-29T03:08:58;10.3;;;6.6;;
69917;SDS011;57203;42.672;23.334;2023-05-29T03:09:58;10.3;;;6.5;;
69917;SDS011;57203;42.672;23.334;2023-05-29T03:10:58;8.9;;;6.1;;
69917;SDS011;57203;42.672;23.334;2023-05-29T03:11:58;7.4;;;6.4;;
69917;SDS011;57203;42.672;23.334;2023-05-29T03:12:58;10.2;;;6.7;;
69917;SDS011;57203;42.672;23.334;2023-05-29T03:13:59;10.2;;;7.0;;
69917;SDS011;57203;42.672;23.334;2023-05-29T03:14:59;9.8;;;6.4;;
69917;SDS011;57203;42.672;23.334;2023-05-29T03:15:59;8.7;;;6.7;;
69917;SDS011;57203;42.672;23.334;2023-05-29T03:16:59;9.5;;;6.4;;
69917;SDS011;57203;42.672;23.334;2023-05-29T03:18:00;10.4;;;7.2;;
69917;SDS011;57203;42.672;23.334;2023-05-29T03:19:00;11.7;;;7.0;;
69917;SDS011;57203;42.672;23.334;2023-05-29T03:20:00;11.7;;;6.9;;
69917;SDS011;57203;42.672;23.334;2023-05-29T03:21:00;10.1;;;6.5;;
69917;SDS011;57203;42.672;23.334;2023-05-29T03:22:00;9.9;;;6.7;;
69917;SDS011;57203;42.672;23.334;2023-05-29T03:23:01;10.5;;;6.6;;
69917;SDS011;57203;42.672;23.334;2023-05-29T03:24:01;10.5;;;6.4;;
69917;SDS011;57203;42.672;23.334;2023-05-29T03:25:01;12.4;;;6.5;;
69917;SDS011;57203;42.672;23.334;2023-05-29T03:26:01;10.8;;;7.2;;
69917;SDS011;57203;42.672;23.334;2023-05-29T03:27:02;12.5;;;6.7;;
69917;SDS011;57203;42.672;23.334;2023-05-29T03:30:02;12.1;;;7.3;;
69917;SDS011;57203;42.672;23.334;2023-05-29T03:31:02;12.0;;;7.6;;
69917;SDS011;57203;42.672;23.334;2023-05-29T03:32:03;12.0;;;7.0;;
69917;SDS011;57203;42.672;23.334;2023-05-29T03:34:03;11.7;;;7.1;;
69917;SDS011;57203;42.672;23.334;2023-05-29T03:35:03;11.7;;;6.7;;
69917;SDS011;57203;42.672;23.334;2023-05-29T03:36:04;10.9;;;7.2;;
69917;SDS011;57203;42.672;23.334;2023-05-29T03:38:04;11.2;;;6.9;;
69917;SDS011;57203;42.672;23.334;2023-05-29T03:39:04;9.5;;;8.0;;
69917;SDS011;57203;42.672;23.334;2023-05-29T03:40:05;14.3;;;8.9;;
69917;SDS011;57203;42.672;23.334;2023-05-29T03:41:04;15.8;;;9.9;;
69917;SDS011;57203;42.672;23.334;2023-05-29T03:42:05;9.8;;;7.4;;
69917;SDS011;57203;42.672;23.334;2023-05-29T03:43:05;9.9;;;6.6;;
69917;SDS011;57203;42.672;23.334;2023-05-29T03:44:05;9.9;;;7.1;;
69917;SDS011;57203;42.672;23.334;2023-05-29T03:45:06;11.0;;;7.0;;
69917;SDS011;57203;42.672;23.334;2023-05-29T03:46:06;10.2;;;7.1;;
69917;SDS011;57203;42.672;23.334;2023-05-29T03:47:06;10.5;;;6.9;;
69917;SDS011;57203;42.672;23.334;2023-05-29T03:48:06;9.5;;;7.0;;
69917;SDS011;57203;42.672;23.334;2023-05-29T03:49:06;8.9;;;6.9;;
69917;SDS011;57203;42.672;23.334;2023-05-29T03:50:07;8.9;;;6.4;;
69917;SDS011;57203;42.672;23.334;2023-05-29T03:51:07;9.7;;;6.7;;
69917;SDS011;57203;42.672;23.334;2023-05-29T03:52:07;10.5;;;6.8;;
69917;SDS011;57203;42.672;23.334;2023-05-29T03:53:07;12.2;;;6.6;;
69917;SDS011;57203;42.672;23.334;2023-05-29T03:54:07;12.2;;;6.5;;
69917;SDS011;57203;42.672;23.334;2023-05-29T03:55:08;9.7;;;6.9;;
69917;SDS011;57203;42.672;23.334;2023-05-29T03:56:08;12.3;;;6.4;;
69917;SDS011;57203;42.672;23.334;2023-05-29T03:57:08;9.8;;;6.8;;
69917;SDS011;57203;42.672;23.334;2023-05-29T03:58:08;12.0;;;6.7;;
69917;SDS011;57203;42.672;23.334;2023-05-29T03:59:08;12.0;;;6.5;;
69917;SDS011;57203;42.672;23.334;2023-05-29T04:00:09;8.6;;;6.1;;
69917;SDS011;57203;42.672;23.334;2023-05-29T04:01:09;9.9;;;6.7;;
69917;SDS011;57203;42.672;23.334;2023-05-29T04:03:09;12.9;;;6.2;;
69917;SDS011;57203;42.672;23.334;2023-05-29T04:04:09;11.7;;;6.9;;
69917;SDS011;57203;42.672;23.334;2023-05-29T04:05:10;11.7;;;6.6;;
69917;SDS011;57203;42.672;23.334;2023-05-29T04:06:10;9.1;;;6.8;;
69917;SDS011;57203;42.672;23.334;2023-05-29T04:07:10;11.0;;;7.3;;
69917;SDS011;57203;42.672;23.334;2023-05-29T04:08:10;10.0;;;7.0;;
69917;SDS011;57203;42.672;23.334;2023-05-29T04:09:11;11.2;;;7.1;;
69917;SDS011;57203;42.672;23.334;2023-05-29T04:10:11;10.8;;;7.0;;
69917;SDS011;57203;42.672;23.334;2023-05-29T04:11:11;11.5;;;7.1;;
69917;SDS011;57203;42.672;23.334;2023-05-29T04:12:11;10.0;;;6.4;;
69917;SDS011;57203;42.672;23.334;2023-05-29T04:13:11;10.8;;;7.0;;
69917;SDS011;57203;42.672;23.334;2023-05-29T04:14:12;11.4;;;6.2;;
69917;SDS011;57203;42.672;23.334;2023-05-29T04:15:12;11.4;;;6.4;;
69917;SDS011;57203;42.672;23.334;2023-05-29T04:17:12;8.6;;;6.7;;
69917;SDS011;57203;42.672;23.334;2023-05-29T04:18:13;11.5;;;6.9;;
69917;SDS011;57203;42.672;23.334;2023-05-29T04:19:13;12.6;;;6.8;;
69917;SDS011;57203;42.672;23.334;2023-05-29T04:21:13;11.3;;;7.1;;
69917;SDS011;57203;42.672;23.334;2023-05-29T04:22:13;9.3;;;6.3;;
69917;SDS011;57203;42.672;23.334;2023-05-29T04:23:14;9.5;;;6.5;;
69917;SDS011;57203;42.672;23.334;2023-05-29T04:24:14;9.5;;;6.4;;
69917;SDS011;57203;42.672;23.334;2023-05-29T04:25:14;10.5;;;6.3;;
69917;SDS011;57203;42.672;23.334;2023-05-29T04:26:14;10.6;;;6.9;;
69917;SDS011;57203;42.672;23.334;2023-05-29T04:27:15;10.3;;;6.6;;
69917;SDS011;57203;42.672;23.334;2023-05-29T04:28:15;10.3;;;6.4;;
69917;SDS011;57203;42.672;23.334;2023-05-29T04:29:15;10.8;;;7.0;;
69917;SDS011;57203;42.672;23.334;2023-05-29T04:30:15;12.9;;;6.7;;
69917;SDS011;57203;42.672;23.334;2023-05-29T04:31:15;13.1;;;6.4;;
69917;SDS011;57203;42.672;23.334;2023-05-29T04:32:16;11.4;;;6.6;;
69917;SDS011;57203;42.672;23.334;2023-05-29T04:33:17;9.9;;;6.4;;
69917;SDS011;57203;42.672;23.334;2023-05-29T04:34:16;12.0;;;6.6;;
69917;SDS011;57203;42.672;23.334;2023-05-29T04:35:16;9.7;;;6.4;;
69917;SDS011;57203;42.672;23.334;2023-05-29T04:36:16;9.7;;;6.1;;
69917;SDS011;57203;42.672;23.334;2023-05-29T04:37:17;12.9;;;6.9;;
69917;SDS011;57203;42.672;23.334;2023-05-29T04:38:17;10.4;;;6.1;;
69917;SDS011;57203;42.672;23.334;2023-05-29T04:39:17;10.4;;;6.3;;
69917;SDS011;57203;42.672;23.334;2023-05-29T04:40:17;12.7;;;7.0;;
69917;SDS011;57203;42.672;23.334;2023-05-29T04:41:18;12.5;;;7.1;;
69917;SDS011;57203;42.672;23.334;2023-05-29T04:42:18;15.5;;;6.4;;
69917;SDS011;57203;42.672;23.334;2023-05-29T04:43:18;14.4;;;6.7;;
69917;SDS011;57203;42.672;23.334;2023-05-29T04:44:18;14.4;;;7.8;;
69917;SDS011;57203;42.672;23.334;2023-05-29T04:45:19;14.8;;;6.5;;
69917;SDS011;57203;42.672;23.334;2023-05-29T04:46:19;12.8;;;6.3;;
69917;SDS011;57203;42.672;23.334;2023-05-29T04:47:19;13.6;;;6.6;;
69917;SDS011;57203;42.672;23.334;2023-05-29T04:49:19;13.3;;;6.1;;
69917;SDS011;57203;42.672;23.334;2023-05-29T04:50:20;13.3;;;6.4;;
69917;SDS011;57203;42.672;23.334;2023-05-29T04:51:20;10.4;;;7.4;;
69917;SDS011;57203;42.672;23.334;2023-05-29T04:52:20;14.3;;;7.1;;
69917;SDS011;57203;42.672;23.334;2023-05-29T04:53:20;14.3;;;6.6;;
69917;SDS011;57203;42.672;23.334;2023-05-29T04:54:21;12.4;;;6.9;;
69917;SDS011;57203;42.672;23.334;2023-05-29T04:55:21;12.4;;;5.7;;
69917;SDS011;57203;42.672;23.334;2023-05-29T04:56:21;8.7;;;6.2;;
69917;SDS011;57203;42.672;23.334;2023-05-29T04:57:21;11.7;;;5.3;;
69917;SDS011;57203;42.672;23.334;2023-05-29T04:58:21;8.8;;;5.5;;
69917;SDS011;57203;42.672;23.334;2023-05-29T04:59:22;8.8;;;5.7;;
69917;SDS011;57203;42.672;23.334;2023-05-29T05:01:22;9.7;;;5.1;;
69917;SDS011;57203;42.672;23.334;2023-05-29T05:02:22;13.9;;;5.6;;
69917;SDS011;57203;42.672;23.334;2023-05-29T05:03:22;13.9;;;5.1;;
69917;SDS011;57203;42.672;23.334;2023-05-29T05:04:23;10.0;;;4.9;;
69917;SDS011;57203;42.672;23.334;2023-05-29T05:05:23;10.0;;;5.0;;
69917;SDS011;57203;42.672;23.334;2023-05-29T05:06:23;9.3;;;4.7;;
69917;SDS011;57203;42.672;23.334;2023-05-29T05:07:24;11.7;;;5.1;;
69917;SDS011;57203;42.672;23.334;2023-05-29T05:08:24;11.7;;;5.4;;
69917;SDS011;57203;42.672;23.334;2023-05-29T05:09:24;7.0;;;4.9;;
69917;SDS011;57203;42.672;23.334;2023-05-29T05:10:24;8.0;;;5.1;;
69917;SDS011;57203;42.672;23.334;2023-05-29T05:11:24;6.5;;;5.4;;
69917;SDS011;57203;42.672;23.334;2023-05-29T05:12:24;8.7;;;5.6;;
69917;SDS011;57203;42.672;23.334;2023-05-29T05:13:25;8.5;;;5.4;;
69917;SDS011;57203;42.672;23.334;2023-05-29T05:14:25;8.5;;;5.7;;
69917;SDS011;57203;42.672;23.334;2023-05-29T05:15:25;9.1;;;5.6;;
69917;SDS011;57203;42.672;23.334;2023-05-29T05:16:25;9.2;;;5.4;;
69917;SDS011;57203;42.672;23.334;2023-05-29T05:17:26;11.2;;;6.2;;
69917;SDS011;57203;42.672;23.334;2023-05-29T05:18:26;9.4;;;5.7;;
69917;SDS011;57203;42.672;23.334;2023-05-29T05:19:26;9.4;;;5.4;;
69917;SDS011;57203;42.672;23.334;2023-05-29T05:20:26;10.1;;;5.7;;
69917;SDS011;57203;42.672;23.334;2023-05-29T05:21:26;8.8;;;6.2;;
69917;SDS011;57203;42.672;23.334;2023-05-29T05:22:27;13.9;;;6.5;;
69917;SDS011;57203;42.672;23.334;2023-05-29T05:23:27;9.4;;;6.4;;
69917;SDS011;57203;42.672;23.334;2023-05-29T05:24:27;11.0;;;6.5;;
69917;SDS011;57203;42.672;23.334;2023-05-29T05:25:27;9.0;;;5.9;;
69917;SDS011;57203;42.672;23.334;2023-05-29T05:26:28;8.8;;;6.3;;
69917;SDS011;57203;42.672;23.334;2023-05-29T05:27:28;8.5;;;6.2;;
69917;SDS011;57203;42.672;23.334;2023-05-29T05:28:28;8.5;;;6.0;;
69917;SDS011;57203;42.672;23.334;2023-05-29T05:29:28;12.3;;;6.5;;
69917;SDS011;57203;42.672;23.334;2023-05-29T05:30:28;12.3;;;6.3;;
69917;SDS011;57203;42.672;23.334;2023-05-29T05:32:29;11.0;;;7.2;;
69917;SDS011;57203;42.672;23.334;2023-05-29T05:33:29;11.9;;;7.5;;
69917;SDS011;57203;42.672;23.334;2023-05-29T05:36:30;12.1;;;7.4;;
69917;SDS011;57203;42.672;23.334;2023-05-29T05:37:30;9.8;;;6.8;;
69917;SDS011;57203;42.672;23.334;2023-05-29T05:38:30;9.6;;;5.9;;
69917;SDS011;57203;42.672;23.334;2023-05-29T05:39:31;11.5;;;6.6;;
69917;SDS011;57203;42.672;23.334;2023-05-29T05:40:31;11.5;;;4.3;;
69917;SDS011;57203;42.672;23.334;2023-05-29T05:41:31;6.6;;;4.8;;
69917;SDS011;57203;42.672;23.334;2023-05-29T05:42:31;10.6;;;5.6;;
69917;SDS011;57203;42.672;23.334;2023-05-29T05:43:32;10.6;;;5.4;;
69917;SDS011;57203;42.672;23.334;2023-05-29T05:44:32;11.4;;;6.6;;
69917;SDS011;57203;42.672;23.334;2023-05-29T05:45:32;11.4;;;5.6;;
69917;SDS011;57203;42.672;23.334;2023-05-29T05:46:32;8.6;;;5.7;;
69917;SDS011;57203;42.672;23.334;2023-05-29T05:47:32;8.6;;;5.4;;
69917;SDS011;57203;42.672;23.334;2023-05-29T05:48:33;9.1;;;6.0;;
69917;SDS011;57203;42.672;23.334;2023-05-29T05:49:33;8.5;;;6.7;;
69917;SDS011;57203;42.672;23.334;2023-05-29T05:50:33;13.8;;;7.1;;
69917;SDS011;57203;42.672;23.334;2023-05-29T05:51:33;12.5;;;7.4;;
69917;SDS011;57203;42.672;23.334;2023-05-29T05:52:33;12.8;;;7.3;;
69917;SDS011;57203;42.672;23.334;2023-05-29T05:53:34;12.8;;;7.0;;
69917;SDS011;57203;42.672;23.334;2023-05-29T05:54:34;9.6;;;6.6;;
69917;SDS011;57203;42.672;23.334;2023-05-29T05:55:34;9.6;;;5.8;;
69917;SDS011;57203;42.672;23.334;2023-05-29T05:56:34;14.0;;;4.3;;
69917;SDS011;57203;42.672;23.334;2023-05-29T05:57:35;6.7;;;4.6;;
69917;SDS011;57203;42.672;23.334;2023-05-29T05:58:35;6.4;;;4.7;;
69917;SDS011;57203;42.672;23.334;2023-05-29T05:59:35;5.8;;;4.2;;
69917;SDS011;57203;42.672;23.334;2023-05-29T06:00:35;5.8;;;4.0;;
69917;SDS011;57203;42.672;23.334;2023-05-29T06:01:36;7.0;;;4.2;;
69917;SDS011;57203;42.672;23.334;2023-05-29T06:02:36;7.2;;;4.7;;
69917;SDS011;57203;42.672;23.334;2023-05-29T06:03:36;7.2;;;4.6;;
69917;SDS011;57203;42.672;23.334;2023-05-29T06:04:36;10.4;;;5.4;;
69917;SDS011;57203;42.672;23.334;2023-05-29T06:05:37;10.4;;;4.5;;
69917;SDS011;57203;42.672;23.334;2023-05-29T06:07:37;5.9;;;4.3;;
69917;SDS011;57203;42.672;23.334;2023-05-29T06:08:37;6.0;;;3.8;;
69917;SDS011;57203;42.672;23.334;2023-05-29T06:09:37;6.5;;;3.1;;
69917;SDS011;57203;42.672;23.334;2023-05-29T06:10:38;6.5;;;3.2;;
69917;SDS011;57203;42.672;23.334;2023-05-29T06:11:38;5.8;;;3.5;;
69917;SDS011;57203;42.672;23.334;2023-05-29T06:12:38;5.4;;;3.0;;
69917;SDS011;57203;42.672;23.334;2023-05-29T06:13:38;7.2;;;2.7;;
69917;SDS011;57203;42.672;23.334;2023-05-29T06:15:39;3.4;;;3.2;;
69917;SDS011;57203;42.672;23.334;2023-05-29T06:16:39;4.9;;;3.1;;
69917;SDS011;57203;42.672;23.334;2023-05-29T06:17:39;5.2;;;2.9;;
69917;SDS011;57203;42.672;23.334;2023-05-29T06:18:40;4.1;;;3.1;;
69917;SDS011;57203;42.672;23.334;2023-05-29T06:20:40;4.8;;;2.8;;
69917;SDS011;57203;42.672;23.334;2023-05-29T06:21:40;5.3;;;3.1;;
69917;SDS011;57203;42.672;23.334;2023-05-29T06:22:41;5.3;;;2.8;;
69917;SDS011;57203;42.672;23.334;2023-05-29T06:23:41;4.5;;;3.1;;
69917;SDS011;57203;42.672;23.334;2023-05-29T06:24:41;5.3;;;3.2;;
69917;SDS011;57203;42.672;23.334;2023-05-29T06:26:41;6.0;;;3.1;;
69917;SDS011;57203;42.672;23.334;2023-05-29T06:27:42;6.1;;;2.6;;
69917;SDS011;57203;42.672;23.334;2023-05-29T06:28:42;2.9;;;3.1;;
69917;SDS011;57203;42.672;23.334;2023-05-29T06:29:42;5.5;;;2.3;;
69917;SDS011;57203;42.672;23.334;2023-05-29T06:30:42;3.0;;;3.3;;
69917;SDS011;57203;42.672;23.334;2023-05-29T06:31:43;3.9;;;3.6;;
69917;SDS011;57203;42.672;23.334;2023-05-29T06:32:43;8.6;;;4.0;;
69917;SDS011;57203;42.672;23.334;2023-05-29T06:33:43;7.5;;;4.1;;
69917;SDS011;57203;42.672;23.334;2023-05-29T06:34:43;8.5;;;4.5;;
69917;SDS011;57203;42.672;23.334;2023-05-29T06:35:44;8.5;;;4.1;;
69917;SDS011;57203;42.672;23.334;2023-05-29T06:36:44;6.8;;;4.2;;
69917;SDS011;57203;42.672;23.334;2023-05-29T06:37:44;6.5;;;3.8;;
69917;SDS011;57203;42.672;23.334;2023-05-29T06:38:46;6.8;;;4.1;;
69917;SDS011;57203;42.672;23.334;2023-05-29T06:39:45;8.3;;;3.4;;
69917;SDS011;57203;42.672;23.334;2023-05-29T06:40:45;5.4;;;3.3;;
69917;SDS011;57203;42.672;23.334;2023-05-29T06:41:45;6.4;;;3.2;;
69917;SDS011;57203;42.672;23.334;2023-05-29T06:42:45;5.0;;;3.0;;
69917;SDS011;57203;42.672;23.334;2023-05-29T06:43:45;3.4;;;2.1;;
69917;SDS011;57203;42.672;23.334;2023-05-29T06:44:46;3.4;;;2.2;;
69917;SDS011;57203;42.672;23.334;2023-05-29T06:45:46;3.2;;;2.4;;
69917;SDS011;57203;42.672;23.334;2023-05-29T06:46:46;3.6;;;2.3;;
69917;SDS011;57203;42.672;23.334;2023-05-29T06:47:46;3.5;;;1.7;;
69917;SDS011;57203;42.672;23.334;2023-05-29T06:48:47;5.3;;;1.3;;
69917;SDS011;57203;42.672;23.334;2023-05-29T06:50:47;2.1;;;1.8;;